NY/NJ Local METAR Reports

 

KNYC - NYC/Central Park, NY, USA
Distance from Hoboken: NE 4mi, 7km
Updated: 05/26/2020 2:51pm
Clear
Clear
 
Temperature: 75°F , 24°C
Dew Point: 61°F , 16°C
Humidity: 61%
Barometer: 30.22 inHg , 1023.4 hPa
Clouds: Clear
Visibility: 10 miles , 16 km
2020/05/26 18:51 KNYC 261851Z AUTO 10SM CLR 24/16 A3022 RMK AO2 SLP224 T02440156 $
KEWR - Newark, NJ, USA
Distance from Hoboken: WSW 8mi, 13km
Updated: 05/26/2020 2:51pm
Few Clouds
Few Clouds
 Wind from S
Wind: S 7 mph , 11 km/h
Temperature: 75°F , 24°C
Dew Point: 61°F , 16°C
Humidity: 61%
Barometer: 30.20 inHg , 1022.7 hPa
Clouds: Few Clouds
Visibility: 10 miles , 16 km
Cloud details: Few Clouds 3200 ft
2020/05/26 18:51 KEWR 261851Z 17006KT 10SM FEW032 24/16 A3020 RMK AO2 SLP224 T02390156
 
KLGA - NYC/La Guardia, NY, USA
Distance from Hoboken: ENE 8mi, 13km
Updated: 05/26/2020 2:51pm
Few Clouds
Few Clouds
 Wind from S
Wind: S 8 mph , 13 km/h
Temperature: 75°F , 24°C
Dew Point: 59°F , 15°C
Humidity: 57%
Barometer: 30.19 inHg , 1022.4 hPa
Clouds: Few Clouds
Visibility: 10 miles , 16 km
Cloud details: Few Clouds 3200 ft
2020/05/26 18:51 KLGA 261851Z 17007KT 10SM FEW032 24/15 A3019 RMK AO2 SLP222 T02440150
KTEB - Teterboro, NJ, USA
Distance from Hoboken: N 9mi, 14km
Updated: 05/26/2020 2:51pm
Clear
Clear
 Wind from SSE
Wind: SSE 7 mph , 11 km/h
Temperature: 75°F , 24°C
Dew Point: 61°F , 16°C
Humidity: 61%
Barometer: 30.18 inHg , 1022 hPa
Clouds: Clear
Visibility: 10 miles , 16 km
2020/05/26 18:51 KTEB 261851Z 16006KT 10SM CLR 24/16 A3018 RMK AO2 SLP218 T02440161
 
KJFK - NYC/Jfk Arpt, NY, USA
Distance from Hoboken: ESE 16mi, 25km
Updated: 05/26/2020 2:51pm
Few Clouds
Few Clouds
 Wind from SSE
Wind: SSE 8 mph , 13 km/h
Temperature: 70°F , 21°C
Dew Point: 61°F , 16°C
Humidity: 73%
Barometer: 30.23 inHg , 1023.7 hPa
Clouds: Few Clouds
Visibility: 10 miles , 16 km
Cloud details: Few Clouds 300 ft
Few Clouds 2000 ft
2020/05/26 18:51 KJFK 261851Z 15007KT 120V190 10SM FEW003 FEW020 21/16 A3023 RMK AO2 SLP235 T02060156
KCDW - Caldwell, NJ, USA
Distance from Hoboken: NW 16mi, 26km
Updated: 05/26/2020 2:53pm
Clear
Clear
 Wind from SE
Wind: SE 10 mph , 17 km/h
Temperature: 81°F , 27°C
Heat Index: 82°F , 28°C
Dew Point: 63°F , 17°C
Humidity: 54%
Barometer: 30.18 inHg , 1022 hPa
Clouds: Clear
Visibility: 10 miles , 16 km
2020/05/26 18:53 KCDW 261853Z 14009KT 10SM CLR 27/17 A3018 RMK AO2 SLP224 T02670172
 
KMMU - Morristown Muni, NJ, USA
Distance from Hoboken: W 20mi, 33km
Updated: 05/26/2020 2:45pm
Clear
Clear
 Wind from SSW
Wind: SSW 3 mph , 6 km/h
Temperature: 81°F , 27°C
Heat Index: 83°F , 28°C
Dew Point: 66°F , 19°C
Humidity: 62%
Barometer: 30.18 inHg , 1022 hPa
Clouds: Clear
Visibility: 10 miles , 16 km
2020/05/26 18:45 KMMU 261845Z 21003KT 10SM SKC 27/19 A3018
KHPN - White Plains, NY, USA
Distance from Hoboken: NE 28mi, 46km
Updated: 05/26/2020 2:56pm
Haze, Clear
Haze, Clear
 Wind from SSE
Wind: SSE 10 mph , 17 km/h
Temperature: 75°F , 24°C
Dew Point: 63°F , 17°C
Humidity: 65%
Barometer: 30.20 inHg , 1022.7 hPa
Summary: Haze
Clouds: Clear
Visibility: 6 miles , 10 km
2020/05/26 18:56 KHPN 261856Z 16009KT 6SM HZ CLR 24/17 A3020 RMK AO2 SLP222 T02390167
 
KFRG - Farmingdale, NY, USA
Distance from Hoboken: E 32mi, 52km
Updated: 05/26/2020 2:53pm
Clear
Clear
 Wind from S
Wind: S 7 mph , 11 km/h
Temperature: 73°F , 23°C
Dew Point: 63°F , 17°C
Humidity: 69%
Barometer: 30.22 inHg , 1023.4 hPa
Clouds: Clear
Visibility: 10 miles , 16 km
2020/05/26 18:53 KFRG 261853Z 19006KT 10SM CLR 23/17 A3022 RMK AO2 SLP231 T02280167
KSMQ - Somerville, NJ, USA
Distance from Hoboken: WSW 34mi, 55km
Updated: 05/26/2020 2:53pm
Clear
Clear
 Wind from varies
Wind: varies 5 mph , 7 km/h
Temperature: 81°F , 27°C
Heat Index: 82°F , 28°C
Dew Point: 63°F , 17°C
Humidity: 54%
Barometer: 30.16 inHg , 1021.3 hPa
Clouds: Clear
Visibility: 10 miles , 16 km
2020/05/26 18:53 KSMQ 261853Z AUTO VRB04KT 10SM CLR 27/17 A3016 RMK AO2 SLP213 T02720167
 
KBLM - Belmar/Farmdale, NJ, USA
Distance from Hoboken: S 40mi, 64km
Updated: 05/26/2020 2:56pm
Clear
Clear
 Wind from ESE
Wind: ESE 10 mph , 17 km/h
Temperature: 70°F , 21°C
Dew Point: 63°F , 17°C
Humidity: 78%
Barometer: 30.22 inHg , 1023.4 hPa
Clouds: Clear
Visibility: 10 miles , 16 km
2020/05/26 18:56 KBLM 261856Z AUTO 11009KT 10SM CLR 21/17 A3022 RMK AO2 SLP234 T02110172
K12N - Andover, NJ, USA
Distance from Hoboken: WNW 41mi, 67km
Updated: 05/26/2020 2:54pm

 Wind from SSW
Wind: SSW 8 mph , 13 km/h
Temperature: 82°F , 28°C
Heat Index: 84°F , 29°C
Dew Point: 64°F , 18°C
Humidity: 55%
Barometer: 30.17 inHg , 1021.7 hPa
2020/05/26 18:54 K12N 261854Z AUTO 20007KT 180V240 28/18 A3017 RMK AO1 SLP209 T02830183
 
KFWN - Sussex, NJ, USA
Distance from Hoboken: NW 45mi, 72km
Updated: 05/26/2020 2:53pm
Clear
Clear
 Wind from calm
Wind: Calm
Temperature: 84°F , 29°C
Heat Index: 85°F , 29°C
Dew Point: 64°F , 18°C
Humidity: 51%
Barometer: 30.16 inHg , 1021.3 hPa
Clouds: Clear
Visibility: 10 miles , 16 km
2020/05/26 18:53 KFWN 261853Z AUTO 00000KT 10SM CLR 29/18 A3016 RMK AO2 SLP209 T02940183
KISP - Islip, NY, USA
Distance from Hoboken: E 49mi, 79km
Updated: 05/26/2020 2:56pm
Few Clouds
Few Clouds
 Wind from S
Wind: S 7 mph , 11 km/h
Temperature: 72°F , 22°C
Dew Point: 63°F , 17°C
Humidity: 73%
Barometer: 30.21 inHg , 1023 hPa
Clouds: Few Clouds
Visibility: 10 miles , 16 km
Cloud details: Few Clouds 2000 ft
Few Clouds 25000 ft
2020/05/26 18:56 KISP 261856Z 18006KT 10SM FEW020 FEW250 22/17 A3021 RMK AO2 SLP231 T02170167